University of Illinois Willard Airport
KCMI : now visible

Airfield :











YOU CAN JOIN US ON...

 
LOGIN :

Register | Disclaimer

   EN    FR    IT 

 









Legend :    VFR   Marginal VFR   IFR   Intensive IFR   Very Intensive IFR
Visi :
Ceiling :
>= 8 km
>= 3000ft
5 to 8 km
1000 to 3000 ft
1500m to 5 km
500 to 1000 ft
800 to 1500m
200 to 500 ft
< 800m
< 200 ft
Symbols :   Thunderstorms  Fog  Heavy snow  Heavy precipitations  Wind > 20 kt






- Airport Elevation : 755 ft
- IATA code : CMI


KCMI - University of Illinois Willard

EXPIRED METARs :
  • 280253Z 33008KT 10SM FEW013 OVC028 05/03 A2983 RMK AO2 RAE07B42E52 SLP105 P0000 60000 T00500028 51019
  • 280236Z 33010KT 10SM BKN013 OVC042 05/03 A2982 RMK AO2 RAE07 P0000 T00500028
  • 280153Z 33011KT 10SM -RA OVC011 06/03 A2980 RMK AO2 RAB29 SLP095 P0000 T00560033
  • 272153Z 31012KT 9SM FEW100 07/04 A2966 RMK AO2 SLP045 T00720039

TAF KCMI
Valid from the 28 at 02:00 until the 29 at 00:00 UTC


280209Z 2802/2824 33011KT P6SM BKN018 BKN040
FM280900 VRB03KT P6SM BKN120
FM281700 18008KT P6SM SCT250
KZAU FIR / North America



MET'MAP, your aeronautical weather chart ! - Copyright ORBIFLY December 2007 - Disclaimer

ORBIFLY MET'MAP TEAM :

Programming & Development : Alexandra Zaïnal
Original concept : Baudouin d'Aumeries
Technical & hardware support : Manuel Goepfert
Assistance : Marc-Olivier Méhu




SOURCES & CREDITS :

   NOAA       Earth
Advisory